Time;durP1;ratioP1;P1;durP2;ratioP2;P2;SDS_P1;SDS_P2;PMS_P1;PMS_P2;Temp;Humidity;BMP_temperature;BMP_pressure;BME280_temperature;BME280_humidity;BME280_pressure;Samples;Min_cycle;Max_cycle;Signal;HPM_P1;HPM_P2
2022/10/24 00:00:57;;;;;;;;;;;;;;;11.72;100.00;99725.06;1744165;81;21109;-66
2022/10/24 00:03:24;;;;;;;6.80;3.42;;;;;;;11.67;100.00;99722.85;1743975;81;20144;-66
2022/10/24 00:05:52;;;;;;;6.37;3.42;;;;;;;11.61;100.00;99722.61;1748647;81;21054;-68
2022/10/24 00:08:18;;;;;;;6.60;3.10;;;;;;;11.59;100.00;99727.51;1757867;81;21624;-67
2022/10/24 00:10:47;;;;;;;5.80;3.33;;;;;;;11.54;100.00;99740.63;1745450;81;21768;-67
2022/10/24 00:13:15;;;;;;;6.00;3.27;;;;;;;11.45;100.00;99740.38;1744094;81;21081;-67
2022/10/24 00:15:48;;;;;;;8.65;3.83;;;;;;;11.40;100.00;99743.67;1745495;81;21149;-68
2022/10/24 00:18:16;;;;;;;6.25;4.53;;;;;;;11.32;100.00;99744.23;1686204;84;21063;-67
2022/10/24 00:20:43;;;;;;;8.23;4.17;;;;;;;11.21;100.00;99744.80;1663024;85;21110;-67
2022/10/24 00:23:12;;;;;;;8.70;5.15;;;;;;;11.18;100.00;99749.98;1657278;85;21099;-67
2022/10/24 00:25:40;;;;;;;8.55;4.17;;;;;;;11.19;100.00;99753.81;1675092;85;21174;-68
2022/10/24 00:28:08;;;;;;;8.28;4.62;;;;;;;11.19;100.00;99750.27;1674291;85;21099;-68
2022/10/24 00:30:36;;;;;;;7.03;4.55;;;;;;;11.21;100.00;99755.70;1665409;85;22207;-68
2022/10/24 00:33:02;;;;;;;7.78;4.30;;;;;;;11.25;100.00;99751.88;1668307;85;21363;-67
2022/10/24 00:35:29;;;;;;;7.50;5.17;;;;;;;11.28;100.00;99754.87;1667267;85;21095;-67
2022/10/24 00:37:55;;;;;;;7.28;4.87;;;;;;;11.31;100.00;99755.67;1673446;85;21075;-68
2022/10/24 00:40:22;;;;;;;7.92;4.87;;;;;;;11.37;100.00;99755.13;1682059;85;21107;-68
2022/10/24 00:42:50;;;;;;;9.73;4.75;;;;;;;11.41;100.00;99758.38;1672183;85;21554;-68
2022/10/24 00:45:55;;;;;;;7.28;4.50;;;;;;;11.44;100.00;99752.36;1667477;85;21071;-68
2022/10/24 00:48:32;;;;;;;7.00;4.58;;;;;;;11.47;100.00;99757.83;1656294;85;21067;-69
2022/10/24 00:51:07;;;;;;;;;;;;;;;11.51;100.00;99757.55;1656772;85;21107;-68
2022/10/24 00:53:38;;;;;;;8.63;4.10;;;;;;;11.56;100.00;99760.24;1675948;85;20163;-68
2022/10/24 00:56:05;;;;;;;10.28;4.45;;;;;;;11.58;100.00;99759.98;1678837;85;21140;-68
2022/10/24 00:58:33;;;;;;;12.05;4.50;;;;;;;11.62;100.00;99761.06;1679210;85;21110;-69
2022/10/24 01:01:00;;;;;;;7.67;4.60;;;;;;;11.66;100.00;99753.93;1667421;85;21079;-68
2022/10/24 01:03:26;;;;;;;7.20;4.65;;;;;;;11.66;100.00;99756.66;1679583;85;21055;-68
2022/10/24 01:06:04;;;;;;;8.48;4.80;;;;;;;11.67;100.00;99750.12;1681726;85;22241;-68
2022/10/24 01:08:48;;;;;;;10.60;5.12;;;;;;;11.71;100.00;99752.59;1677908;85;21107;-68
2022/10/24 01:11:29;;;;;;;7.45;4.62;;;;;;;11.71;100.00;99752.05;1718099;82;21087;-69
2022/10/24 01:14:28;;;;;;;7.85;5.30;;;;;;;11.74;100.00;99756.13;1728981;82;21110;-67
2022/10/24 01:17:10;;;;;;;10.93;5.00;;;;;;;11.71;100.00;99749.86;1715649;82;21135;-67
2022/10/24 01:19:58;;;;;;;10.00;5.60;;;;;;;11.66;100.00;99749.30;1711190;82;21087;-67
2022/10/24 01:23:13;;;;;;;15.93;5.58;;;;;;;11.64;100.00;99762.41;1714976;82;21043;-68
2022/10/24 01:26:20;;;;;;;8.85;5.87;;;;;;;11.59;100.00;99752.05;1723639;82;21134;-68
2022/10/24 01:29:02;;;;;;;11.10;6.60;;;;;;;11.55;100.00;99755.09;1714917;82;21065;-69
2022/10/24 01:31:49;;;;;;;8.25;5.42;;;;;;;11.49;100.00;99751.00;1720296;82;21162;-68
2022/10/24 01:34:30;;;;;;;9.60;5.10;;;;;;;11.42;100.00;99749.11;1690820;82;21094;-66
2022/10/24 01:37:10;;;;;;;10.40;5.37;;;;;;;11.38;100.00;99750.75;1728060;82;22178;-67
2022/10/24 01:39:42;;;;;;;9.50;4.45;;;;;;;11.36;100.00;99751.59;1713726;82;21004;-69
2022/10/24 01:42:09;;;;;;;8.65;5.08;;;;;;;11.32;100.00;99745.05;1735263;82;20953;-67
2022/10/24 01:44:39;;;;;;;8.98;5.00;;;;;;;11.31;100.00;99749.41;1728726;82;21508;-67
2022/10/24 01:47:14;;;;;;;8.78;5.40;;;;;;;11.30;100.00;99749.16;1730042;82;20944;-67
2022/10/24 01:49:42;;;;;;;9.15;5.55;;;;;;;11.23;100.00;99741.24;1714167;82;21043;-67
2022/10/24 01:52:12;;;;;;;8.55;5.05;;;;;;;11.19;100.00;99737.46;1713001;82;21066;-67
2022/10/24 01:54:39;;;;;;;10.80;5.10;;;;;;;11.15;100.00;99737.73;1720645;82;21107;-67
2022/10/24 01:57:06;;;;;;;;;;;;;;;11.09;100.00;99730.64;1725959;82;22290;-67
2022/10/24 01:59:38;;;;;;;11.45;4.95;;;;;;;11.03;100.00;99726.30;1723517;82;20115;-67
2022/10/24 02:02:12;;;;;;;8.68;5.15;;;;;;;10.95;100.00;99725.48;1727781;82;21036;-67
2022/10/24 02:04:45;;;;;;;9.15;5.78;;;;;;;10.89;100.00;99727.95;1729153;82;21399;-67
2022/10/24 02:07:12;;;;;;;9.63;5.53;;;;;;;10.80;100.00;99723.62;1712866;82;21587;-67
2022/10/24 02:09:41;;;;;;;12.10;5.83;;;;;;;10.77;100.00;99728.80;1721550;82;21063;-67
2022/10/24 02:12:08;;;;;;;11.55;5.25;;;;;;;10.75;100.00;99740.48;1729572;82;21075;-66
2022/10/24 02:14:40;;;;;;;10.98;5.47;;;;;;;10.71;100.00;99740.76;1722764;82;21657;-66
2022/10/24 02:17:08;;;;;;;8.53;5.45;;;;;;;10.69;100.00;99736.14;1728015;82;21957;-67
2022/10/24 02:19:35;;;;;;;;;;;;;;;10.67;100.00;99738.30;1740012;81;22183;-66
2022/10/24 02:22:16;;;;;;;9.08;5.35;;;;;;;10.66;100.00;99742.13;1741997;82;20150;-67
2022/10/24 02:25:03;;;;;;;10.48;5.83;;;;;;;10.58;100.00;99750.30;1726080;82;21126;-66
2022/10/24 02:27:34;;;;;;;7.92;5.87;;;;;;;10.56;100.00;99747.58;1725276;82;21038;-67
2022/10/24 02:30:09;;;;;;;12.37;5.70;;;;;;;10.59;100.00;99744.31;1737605;82;21141;-67
2022/10/24 02:32:44;;;;;;;10.05;5.80;;;;;;;10.63;100.00;99750.84;1722854;82;21034;-66
2022/10/24 02:35:12;;;;;;;9.53;5.62;;;;;;;10.67;100.00;99752.73;1743827;82;21504;-67
2022/10/24 02:37:41;;;;;;;13.78;6.08;;;;;;;10.72;100.00;99754.66;1726221;82;20995;-67
2022/10/24 02:40:08;;;;;;;9.55;6.10;;;;;;;10.71;100.00;99751.65;1743858;82;21016;-67
2022/10/24 02:42:35;;;;;;;10.15;5.90;;;;;;;10.66;100.00;99747.04;1737218;81;21470;-66
2022/10/24 02:45:02;;;;;;;10.95;6.12;;;;;;;10.72;100.00;99753.29;1736011;82;21125;-66
2022/10/24 02:47:29;;;;;;;8.55;5.83;;;;;;;10.80;100.00;99755.48;1727181;82;21332;-66
2022/10/24 02:49:55;;;;;;;11.35;6.47;;;;;;;10.89;100.00;99755.19;1718813;82;21493;-66
2022/10/24 02:52:22;;;;;;;10.40;5.85;;;;;;;10.95;100.00;99758.17;1729657;82;21094;-67
2022/10/24 02:54:50;;;;;;;11.97;5.97;;;;;;;11.01;100.00;99769.90;1727234;82;21612;-67
2022/10/24 02:57:17;;;;;;;;;;;;;;;11.02;100.00;99768.24;1728209;82;21030;-67
2022/10/24 02:59:43;;;;;;;10.45;6.20;;;;;;;11.07;100.00;99774.23;1731254;82;20130;-66
2022/10/24 03:02:10;;;;;;;10.90;5.42;;;;;;;11.08;100.00;99771.80;1724698;82;21511;-67
2022/10/24 03:04:37;;;;;;;10.70;5.62;;;;;;;11.14;100.00;99783.77;1742196;82;21074;-67
2022/10/24 03:07:06;;;;;;;9.50;5.50;;;;;;;11.17;100.00;99776.41;1725830;81;21051;-66
2022/10/24 03:09:33;;;;;;;8.35;5.17;;;;;;;11.21;100.00;99780.77;1733533;82;21030;-67
2022/10/24 03:12:00;;;;;;;9.20;5.33;;;;;;;11.22;100.00;99775.59;1739498;82;22223;-66
2022/10/24 03:14:27;;;;;;;12.33;5.90;;;;;;;11.23;100.00;99773.94;1744945;82;21129;-66
2022/10/24 03:16:54;;;;;;;9.25;5.67;;;;;;;11.27;100.00;99775.56;1738751;82;21062;-67
2022/10/24 03:19:21;;;;;;;8.73;6.05;;;;;;;11.30;100.00;99770.38;1734011;82;21047;-67
2022/10/24 03:21:47;;;;;;;11.40;6.70;;;;;;;11.34;100.00;99767.38;1739324;81;21094;-67
2022/10/24 03:24:13;;;;;;;;;;;;;;;11.32;100.00;99777.75;1732906;82;21534;-67
2022/10/24 03:26:41;;;;;;;12.13;6.08;;;;;;;11.34;100.00;99773.37;1728067;82;20146;-67
2022/10/24 03:29:08;;;;;;;11.18;6.10;;;;;;;11.34;100.00;99770.65;1740684;82;21072;-67
2022/10/24 03:31:35;;;;;;;12.37;6.40;;;;;;;11.38;100.00;99775.83;1737416;82;21605;-66
2022/10/24 03:34:01;;;;;;;10.23;6.05;;;;;;;11.40;100.00;99777.74;1743149;82;21039;-67
2022/10/24 03:36:28;;;;;;;11.43;6.00;;;;;;;11.41;100.00;99777.99;1733554;82;21106;-67
2022/10/24 03:38:55;;;;;;;11.88;5.87;;;;;;;11.44;100.00;99782.34;1728947;82;21082;-67
2022/10/24 03:41:21;;;;;;;14.13;6.37;;;;;;;11.48;100.00;99778.52;1729942;82;21122;-66
2022/10/24 03:43:48;;;;;;;12.30;5.90;;;;;;;11.50;100.00;99781.80;1735859;82;21435;-67
2022/10/24 03:46:16;;;;;;;10.70;6.85;;;;;;;11.46;100.00;99777.45;1732067;82;21603;-67
2022/10/24 03:48:43;;;;;;;11.08;6.20;;;;;;;11.47;100.00;99783.73;1737067;82;21047;-66
2022/10/24 03:51:09;;;;;;;11.30;6.05;;;;;;;11.49;100.00;99785.08;1738461;82;22361;-67
2022/10/24 03:53:36;;;;;;;8.98;6.00;;;;;;;11.49;100.00;99788.34;1739157;82;21085;-67
2022/10/24 03:56:03;;;;;;;9.88;6.15;;;;;;;11.47;100.00;99785.91;1718727;82;21435;-67
2022/10/24 03:58:30;;;;;;;10.40;6.50;;;;;;;11.46;100.00;99792.45;1721830;82;21522;-67
2022/10/24 04:00:57;;;;;;;8.50;6.50;;;;;;;11.43;100.00;99796.27;1736955;82;21549;-66
2022/10/24 04:03:26;;;;;;;10.50;6.75;;;;;;;11.35;100.00;99803.63;1735463;82;21058;-66
2022/10/24 04:05:53;;;;;;;10.00;5.80;;;;;;;11.31;100.00;99802.55;1747637;81;21161;-66
2022/10/24 04:08:20;;;;;;;10.20;6.12;;;;;;;11.31;100.00;99806.09;1735697;82;21035;-67
2022/10/24 04:10:48;;;;;;;9.93;6.72;;;;;;;11.37;100.00;99803.63;1735271;82;21090;-67
2022/10/24 04:13:16;;;;;;;8.90;6.37;;;;;;;11.44;100.00;99806.09;1733422;80;21073;-67
2022/10/24 04:15:43;;;;;;;10.20;6.90;;;;;;;11.47;100.00;99810.45;1726685;82;21097;-66
2022/10/24 04:18:09;;;;;;;10.85;7.03;;;;;;;11.55;100.00;99806.88;1736811;82;22236;-67
2022/10/24 04:20:36;;;;;;;11.05;6.87;;;;;;;11.56;100.00;99803.86;1745806;81;21043;-67
2022/10/24 04:23:02;;;;;;;10.82;7.25;;;;;;;11.58;100.00;99807.69;1744748;81;20980;-67
2022/10/24 04:25:29;;;;;;;11.03;7.85;;;;;;;11.56;100.00;99805.77;1748372;81;21546;-67
2022/10/24 04:27:55;;;;;;;;;;;;;;;11.56;100.00;99808.50;1745509;81;20991;-67
2022/10/24 04:30:21;;;;;;;11.05;7.25;;;;;;;11.65;100.00;99809.58;1744217;81;20151;-67
2022/10/24 04:32:48;;;;;;;12.47;7.70;;;;;;;11.64;100.00;99801.94;1740312;81;22295;-68
2022/10/24 04:35:14;;;;;;;;;;;;;;;11.67;100.00;99803.29;1743131;81;21082;-66
2022/10/24 04:37:40;;;;;;;11.70;7.17;;;;;;;11.68;100.00;99804.94;1764272;81;20164;-67
2022/10/24 04:40:08;;;;;;;10.08;7.92;;;;;;;11.63;100.00;99803.57;1750342;80;21020;-67
2022/10/24 04:42:35;;;;;;;13.22;8.35;;;;;;;11.64;100.00;99813.39;1746914;81;21059;-68
2022/10/24 04:45:01;;;;;;;12.58;8.35;;;;;;;11.59;100.00;99812.03;1747826;81;21592;-67
2022/10/24 04:47:28;;;;;;;11.85;7.60;;;;;;;11.57;100.00;99810.96;1744843;81;21027;-67
2022/10/24 04:49:55;;;;;;;13.65;8.20;;;;;;;11.62;100.00;99818.31;1748264;80;21392;-66
2022/10/24 04:52:21;;;;;;;;;;;;;;;11.64;100.00;99822.94;1754817;81;21016;-67
2022/10/24 04:54:48;;;;;;;11.40;7.20;;;;;;;11.64;100.00;99820.20;1744267;81;20162;-67
2022/10/24 04:57:15;;;;;;;;;;;;;;;11.62;100.00;99820.47;1753883;80;21066;-67
2022/10/24 04:59:42;;;;;;;9.38;6.87;;;;;;;11.68;100.00;99823.48;1738455;81;20168;-67
2022/10/24 05:02:09;;;;;;;13.08;7.67;;;;;;;11.70;100.00;99829.45;1753539;80;21087;-65
2022/10/24 05:04:35;;;;;;;10.72;7.90;;;;;;;11.72;100.00;99827.32;1738190;81;21609;-67
2022/10/24 05:07:02;;;;;;;14.07;8.35;;;;;;;11.75;100.00;99830.85;1737532;81;21039;-67
2022/10/24 05:09:29;;;;;;;13.68;7.80;;;;;;;11.77;100.00;99830.56;1738602;81;21109;-66
2022/10/24 05:11:56;;;;;;;9.80;7.53;;;;;;;11.84;100.00;99824.27;1747062;81;21095;-65
2022/10/24 05:14:24;;;;;;;11.73;7.37;;;;;;;11.93;100.00;99836.25;1746229;81;21047;-66
2022/10/24 05:16:51;;;;;;;9.68;6.87;;;;;;;12.02;100.00;99840.03;1745048;81;21119;-67
2022/10/24 05:19:19;;;;;;;7.60;6.40;;;;;;;12.08;100.00;99836.75;1732894;81;21126;-65
2022/10/24 05:21:46;;;;;;;9.93;7.08;;;;;;;12.10;100.00;99839.45;1737101;82;21082;-66
2022/10/24 05:24:12;;;;;;;10.58;6.28;;;;;;;12.13;100.00;99845.72;1744214;82;21064;-66
2022/10/24 05:26:38;;;;;;;;;;;;;;;12.18;100.00;99841.62;1735242;82;21061;-65
2022/10/24 05:29:06;;;;;;;10.58;6.45;;;;;;;12.21;100.00;99842.96;1719832;82;20130;-67
2022/10/24 05:31:33;;;;;;;;;;;;;;;12.15;100.00;99848.97;1747046;82;21105;-67
2022/10/24 05:33:59;;;;;;;7.95;5.83;;;;;;;12.19;100.00;99851.95;1741865;82;20122;-65
2022/10/24 05:36:25;;;;;;;;;;;;;;;12.18;100.00;99851.71;1744817;82;21090;-67
2022/10/24 05:38:52;;;;;;;11.45;7.20;;;;;;;12.22;100.00;99845.97;1722562;82;20149;-66
2022/10/24 05:41:18;;;;;;;;;;;;;;;12.22;100.00;99844.03;1737415;82;21383;-67
2022/10/24 05:43:44;;;;;;;12.47;8.13;;;;;;;12.27;100.00;99845.38;1745702;82;20138;-67
2022/10/24 05:46:12;;;;;;;13.48;8.30;;;;;;;12.21;100.00;99846.52;1742179;82;21090;-67
2022/10/24 05:48:40;;;;;;;10.95;7.90;;;;;;;12.26;100.00;99838.28;1717000;83;21059;-67
2022/10/24 05:51:06;;;;;;;12.93;8.35;;;;;;;12.32;100.00;99852.74;1718112;82;21062;-67
2022/10/24 05:53:33;;;;;;;11.75;8.60;;;;;;;12.36;100.00;99846.99;1736083;82;21042;-69
2022/10/24 05:55:59;;;;;;;11.18;8.30;;;;;;;12.40;100.00;99848.86;1721976;82;21072;-68
2022/10/24 05:58:26;;;;;;;12.13;8.28;;;;;;;12.42;100.00;99855.41;1730714;82;20976;-68
2022/10/24 06:00:53;;;;;;;13.10;8.95;;;;;;;12.45;100.00;99857.03;1722150;82;21051;-69
2022/10/24 06:03:20;;;;;;;13.78;9.20;;;;;;;12.48;100.00;99863.84;1742168;82;21505;-68
2022/10/24 06:05:47;;;;;;;14.20;9.88;;;;;;;12.48;100.00;99866.03;1747170;82;21020;-67
2022/10/24 06:08:13;;;;;;;13.60;10.28;;;;;;;12.52;100.00;99860.81;1683067;85;21090;-68
2022/10/24 06:10:40;;;;;;;;;;;;;;;12.60;100.00;99853.41;1685582;84;21107;-67
2022/10/24 06:13:07;;;;;;;14.55;10.15;;;;;;;12.69;100.00;99862.63;1703814;84;20164;-67
2022/10/24 06:15:33;;;;;;;16.82;10.93;;;;;;;12.68;100.00;99864.30;1705491;84;21111;-68
2022/10/24 06:18:01;;;;;;;15.78;11.73;;;;;;;12.70;100.00;99864.81;1705099;84;21063;-68
2022/10/24 06:20:28;;;;;;;18.80;12.23;;;;;;;12.70;100.00;99863.45;1715422;83;21126;-68
2022/10/24 06:22:55;;;;;;;16.60;11.65;;;;;;;12.72;100.00;99859.33;1697921;83;21085;-68
2022/10/24 06:25:21;;;;;;;;;;;;;;;12.76;100.00;99857.66;1700009;83;22277;-68
2022/10/24 06:27:48;;;;;;;16.87;11.08;;;;;;;12.81;100.00;99861.75;1697193;83;20457;-68
2022/10/24 06:30:16;;;;;;;16.48;12.15;;;;;;;12.79;100.00;99866.66;1723892;83;21396;-69
2022/10/24 06:32:43;;;;;;;16.20;11.55;;;;;;;12.85;100.00;99858.72;1703250;83;21069;-68
2022/10/24 06:35:12;;;;;;;;;;;;;;;12.88;100.00;99864.97;1726189;83;21124;-68
2022/10/24 06:37:39;;;;;;;20.25;12.98;;;;;;;12.89;100.00;99863.85;1706879;83;20142;-69
2022/10/24 06:40:07;;;;;;;21.50;13.25;;;;;;;12.85;100.00;99868.83;1695940;83;21541;-68
2022/10/24 06:42:33;;;;;;;21.12;12.60;;;;;;;12.91;100.00;99869.87;1697387;83;21620;-68
2022/10/24 06:45:00;;;;;;;16.97;11.12;;;;;;;12.90;100.00;99880.52;1718707;83;21139;-67
2022/10/24 06:47:26;;;;;;;;;;;;;;;12.96;100.00;99873.95;1703249;83;21044;-68
2022/10/24 06:49:53;;;;;;;22.00;12.00;;;;;;;13.02;100.00;99877.98;1715091;83;20151;-69
2022/10/24 06:52:19;;;;;;;;;;;;;;;13.00;100.00;99866.55;1712680;83;21033;-70
2022/10/24 06:54:46;;;;;;;19.60;11.95;;;;;;;13.07;100.00;99876.05;1673451;84;20171;-69
2022/10/24 06:57:12;;;;;;;;;;;;;;;13.10;100.00;99870.05;1698850;83;21015;-69
2022/10/24 06:59:38;;;;;;;20.90;12.18;;;;;;;13.10;100.00;99880.98;1706641;83;20485;-68
2022/10/24 07:02:06;;;;;;;15.83;12.07;;;;;;;12.99;100.00;99873.92;1695352;83;21117;-69
2022/10/24 07:04:34;;;;;;;21.05;13.18;;;;;;;13.02;100.00;99872.52;1722934;83;21644;-70
2022/10/24 07:07:01;;;;;;;22.75;13.13;;;;;;;13.08;100.00;99875.48;1695654;83;21711;-69
2022/10/24 07:09:27;;;;;;;21.25;12.58;;;;;;;13.14;100.00;99877.95;1676444;84;21033;-69
2022/10/24 07:11:54;;;;;;;21.82;13.58;;;;;;;13.17;100.00;99889.67;1710015;81;21536;-69
2022/10/24 07:14:20;;;;;;;25.40;13.70;;;;;;;13.23;100.00;99888.52;1716629;83;21547;-69
2022/10/24 07:16:47;;;;;;;20.23;13.25;;;;;;;13.25;100.00;99886.88;1710577;83;21089;-70
2022/10/24 07:19:14;;;;;;;21.87;12.50;;;;;;;13.29;100.00;99887.37;1695900;83;21124;-68
2022/10/24 07:21:40;;;;;;;28.55;13.30;;;;;;;13.33;100.00;99890.34;1686653;84;21094;-68
2022/10/24 07:24:07;;;;;;;;;;;;;;;13.33;100.00;99884.88;1692733;84;20996;-68
2022/10/24 07:26:34;;;;;;;;;;;;;;;13.36;100.00;99882.39;1686030;84;20346;-68
2022/10/24 07:29:02;;;;;;;20.85;13.43;;;;;;;13.38;100.00;99878.84;1680167;84;20143;-68
2022/10/24 07:31:31;;;;;;;22.20;12.43;;;;;;;13.38;100.00;99876.65;1685615;84;21153;-68
2022/10/24 07:33:59;;;;;;;20.70;12.93;;;;;;;13.45;100.00;99882.05;1697280;84;21593;-67
2022/10/24 07:36:26;;;;;;;16.93;12.07;;;;;;;13.57;100.00;99879.50;1684036;84;21079;-67
2022/10/24 07:38:55;;;;;;;21.20;12.82;;;;;;;13.66;100.00;99884.59;1682487;83;21078;-67
2022/10/24 07:41:24;;;;;;;21.40;12.15;;;;;;;13.75;100.00;99888.32;1691931;84;21019;-68
2022/10/24 07:43:51;;;;;;;22.93;13.32;;;;;;;13.82;100.00;99886.06;1693724;84;20951;-67
2022/10/24 07:46:18;;;;;;;18.30;13.18;;;;;;;13.83;100.00;99884.97;1696340;84;21090;-67
2022/10/24 07:48:48;;;;;;;21.37;13.03;;;;;;;13.85;100.00;99884.14;1677994;84;20988;-68
2022/10/24 07:51:14;;;;;;;20.05;12.78;;;;;;;13.87;100.00;99883.28;1655654;86;21650;-68
2022/10/24 07:53:41;;;;;;;20.02;13.35;;;;;;;13.88;100.00;99889.85;1679305;84;21098;-68
2022/10/24 07:56:12;;;;;;;23.02;13.08;;;;;;;13.88;100.00;99887.66;1684814;84;21118;-68
2022/10/24 07:58:39;;;;;;;18.67;12.15;;;;;;;13.86;100.00;99886.57;1680849;84;21063;-68
2022/10/24 08:01:09;;;;;;;21.77;12.37;;;;;;;13.90;100.00;99889.55;1686828;84;21660;-68
2022/10/24 08:03:36;;;;;;;18.10;11.78;;;;;;;13.95;100.00;99892.23;1686933;84;21094;-68
2022/10/24 08:06:08;;;;;;;16.37;11.38;;;;;;;13.97;100.00;99890.02;1686207;84;21122;-67
2022/10/24 08:08:36;;;;;;;19.32;11.78;;;;;;;13.95;100.00;99886.77;1688040;84;21114;-68
2022/10/24 08:11:10;;;;;;;17.80;11.68;;;;;;;13.90;100.00;99888.17;1672036;84;21102;-69
2022/10/24 08:13:39;;;;;;;14.70;10.93;;;;;;;13.94;100.00;99879.11;1683021;84;21095;-67
2022/10/24 08:16:10;;;;;;;16.48;10.55;;;;;;;14.04;100.00;99877.34;1679388;84;21114;-68
2022/10/24 08:18:37;;;;;;;16.62;10.50;;;;;;;14.13;100.00;99881.91;1675268;84;21023;-68
2022/10/24 08:21:06;;;;;;;15.18;10.58;;;;;;;14.22;100.00;99879.33;1674067;83;21087;-69
2022/10/24 08:23:34;;;;;;;15.20;10.30;;;;;;;14.27;100.00;99873.26;1683355;85;21103;-68
2022/10/24 08:26:05;;;;;;;16.97;9.80;;;;;;;14.29;100.00;99875.69;1697706;84;21194;-68
2022/10/24 08:28:32;;;;;;;13.68;9.20;;;;;;;14.32;100.00;99880.58;1684130;84;21000;-68
2022/10/24 08:31:07;;;;;;;14.87;9.20;;;;;;;14.33;100.00;99878.11;1677774;85;21115;-68
2022/10/24 08:33:33;;;;;;;16.50;9.80;;;;;;;14.34;100.00;99883.88;1680931;84;21016;-68
2022/10/24 08:36:12;;;;;;;13.00;9.38;;;;;;;14.37;100.00;99882.74;1690514;84;21127;-69
2022/10/24 08:38:39;;;;;;;13.60;9.45;;;;;;;14.45;100.00;99884.02;1683707;84;20981;-67
2022/10/24 08:41:11;;;;;;;15.15;10.18;;;;;;;14.50;100.00;99887.22;1690008;84;21051;-68
2022/10/24 08:43:38;;;;;;;22.22;11.60;;;;;;;14.58;100.00;99882.47;1687715;84;21027;-69
2022/10/24 08:46:17;;;;;;;;;;;;;;;14.59;100.00;99884.93;1705080;84;21142;-68
2022/10/24 08:48:51;;;;;;;14.70;9.25;;;;;;;14.63;100.00;99875.56;1694261;84;20501;-68
2022/10/24 08:51:46;;;;;;;13.38;9.08;;;;;;;14.64;100.00;99879.91;1683328;84;21476;-67
2022/10/24 08:54:19;;;;;;;13.85;8.98;;;;;;;14.69;100.00;99878.48;1679777;84;21004;-67
2022/10/24 08:56:46;;;;;;;13.45;9.78;;;;;;;14.65;100.00;99883.74;1678921;82;22289;-67
2022/10/24 08:59:13;;;;;;;14.38;10.25;;;;;;;14.62;100.00;99893.11;1681349;84;21003;-67
2022/10/24 09:01:59;;;;;;;16.37;10.23;;;;;;;14.63;100.00;99892.00;1685285;84;21106;-67
2022/10/24 09:04:28;;;;;;;14.23;10.20;;;;;;;14.55;100.00;99885.25;1701614;84;21484;-68
2022/10/24 09:06:54;;;;;;;13.72;9.28;;;;;;;14.48;100.00;99886.17;1678356;84;21681;-68
2022/10/24 09:09:28;;;;;;;16.60;9.75;;;;;;;14.41;100.00;99891.19;1677708;84;21088;-68
2022/10/24 09:12:02;;;;;;;14.58;9.53;;;;;;;14.42;100.00;99892.25;1687166;84;21150;-67
2022/10/24 09:14:31;;;;;;;12.78;9.65;;;;;;;14.49;100.00;99893.84;1694918;83;21085;-67
2022/10/24 09:17:07;;;;;;;14.10;10.00;;;;;;;14.49;100.00;99893.84;1692784;84;21059;-67
2022/10/24 09:19:33;;;;;;;13.62;9.88;;;;;;;14.42;100.00;99890.06;1678925;84;21035;-67
2022/10/24 09:21:59;;;;;;;14.10;9.65;;;;;;;14.41;100.00;99894.75;1699271;84;21616;-67
2022/10/24 09:24:46;;;;;;;14.58;10.28;;;;;;;14.43;100.00;99895.80;1697567;84;21087;-68
2022/10/24 09:27:20;;;;;;;17.17;11.30;;;;;;;14.41;100.00;99890.64;1688913;84;21074;-66
2022/10/24 09:29:47;;;;;;;18.02;10.32;;;;;;;14.29;100.00;99893.48;1688485;84;21083;-67
2022/10/24 09:32:25;;;;;;;14.73;10.63;;;;;;;14.21;100.00;99892.75;1689375;84;21110;-66
2022/10/24 09:34:52;;;;;;;20.35;11.28;;;;;;;14.16;100.00;99892.28;1690129;84;21039;-68
2022/10/24 09:37:38;;;;;;;17.67;11.57;;;;;;;14.15;100.00;99893.92;1703214;84;21611;-67
2022/10/24 09:40:13;;;;;;;16.62;11.57;;;;;;;14.08;100.00;99891.54;1690465;84;21063;-69
2022/10/24 09:42:40;;;;;;;17.10;10.85;;;;;;;14.01;100.00;99885.59;1688471;84;21770;-68
2022/10/24 09:46:25;;;;;;;17.97;10.80;;;;;;;14.07;100.00;99880.32;1788751;79;22875;-67
2022/10/24 09:49:05;;;;;;;14.43;10.10;;;;;;;14.06;100.00;99897.05;1754248;81;21343;-69
2022/10/24 09:51:40;;;;;;;13.85;9.93;;;;;;;14.12;100.00;99904.91;1732876;80;21022;-69
2022/10/24 09:54:25;;;;;;;12.35;9.60;;;;;;;14.24;100.00;99904.52;1742103;80;21736;-70
2022/10/24 09:57:16;;;;;;;15.10;11.28;;;;;;;14.28;100.00;99904.16;1735648;80;21126;-70
2022/10/24 09:59:59;;;;;;;13.20;10.65;;;;;;;14.30;100.00;99902.79;1740522;81;21878;-69
2022/10/24 10:02:28;;;;;;;13.62;8.43;;;;;;;14.38;100.00;99906.84;1747604;80;20983;-70
2022/10/24 10:05:09;;;;;;;11.30;8.58;;;;;;;14.40;100.00;99904.06;1729757;81;21149;-70
2022/10/24 10:07:41;;;;;;;11.60;9.28;;;;;;;14.33;100.00;99899.46;1716472;81;21043;-71
2022/10/24 10:10:26;;;;;;;11.80;7.75;;;;;;;14.23;100.00;99896.84;1748534;80;21708;-71
2022/10/24 10:13:11;;;;;;;9.88;7.97;;;;;;;14.19;100.00;99894.43;1729713;81;21587;-71
2022/10/24 10:15:39;;;;;;;10.95;8.28;;;;;;;14.18;100.00;99893.34;1670342;84;21071;-71
2022/10/24 10:18:41;;;;;;;9.93;7.90;;;;;;;14.23;100.00;99890.00;1678013;83;21051;-72
2022/10/24 10:21:17;;;;;;;10.68;8.63;;;;;;;14.28;100.00;99883.62;1720651;83;21096;-71
2022/10/24 10:23:49;;;;;;;;;;;;;;;14.38;100.00;99880.24;1724431;83;21048;-71
2022/10/24 10:26:26;;;;;;;12.43;8.43;;;;;;;14.42;100.00;99878.55;1721236;83;20168;-72
2022/10/24 10:29:05;;;;;;;13.83;8.90;;;;;;;14.42;100.00;99884.58;1713414;83;21004;-71
2022/10/24 10:31:45;;;;;;;13.70;9.75;;;;;;;14.52;100.00;99881.73;1705758;83;21258;-71
2022/10/24 10:34:34;;;;;;;14.40;9.18;;;;;;;14.57;100.00;99878.91;1712812;83;21059;-70
2022/10/24 10:37:25;;;;;;;12.88;9.58;;;;;;;14.60;100.00;99882.98;1722220;83;21153;-69
2022/10/24 10:40:09;;;;;;;11.33;9.03;;;;;;;14.65;100.00;99880.18;1722316;83;21043;-70
2022/10/24 10:43:00;;;;;;;10.70;8.20;;;;;;;14.67;100.00;99876.03;1696892;83;21116;-71
2022/10/24 10:45:37;;;;;;;13.55;8.93;;;;;;;14.65;100.00;99881.00;1691366;83;21159;-71
2022/10/24 10:48:42;;;;;;;13.15;8.90;;;;;;;14.58;100.00;99868.77;1733281;82;21397;-72
2022/10/24 10:51:38;;;;;;;10.88;8.43;;;;;;;14.64;100.00;99873.88;1729574;81;21153;-71
2022/10/24 10:54:44;;;;;;;10.72;8.48;;;;;;;14.73;100.00;99874.88;1736675;80;20995;-71
2022/10/24 10:57:15;;;;;;;16.70;10.32;;;;;;;14.72;100.00;99872.41;1737240;82;21028;-69
2022/10/24 10:59:52;;;;;;;13.40;8.88;;;;;;;14.71;100.00;99880.36;1745377;82;21023;-71
2022/10/24 11:02:45;;;;;;;13.05;8.00;;;;;;;14.72;100.00;99870.48;1747953;80;21574;-71
2022/10/24 11:05:27;;;;;;;11.73;8.75;;;;;;;14.75;100.00;99870.45;1728433;80;21633;-71
2022/10/24 11:08:04;;;;;;;12.63;9.33;;;;;;;14.75;100.00;99862.23;1738045;82;21023;-71
2022/10/24 11:10:38;;;;;;;15.05;9.70;;;;;;;14.74;100.00;99856.48;1759780;80;21067;-72
2022/10/24 11:13:07;;;;;;;11.35;9.00;;;;;;;14.73;100.00;99852.12;1723563;82;21071;-71
2022/10/24 11:15:36;;;;;;;10.30;8.98;;;;;;;14.81;100.00;99852.26;1733569;82;21032;-72
2022/10/24 11:18:11;;;;;;;14.00;9.38;;;;;;;14.91;100.00;99854.06;1725160;82;21541;-73
2022/10/24 11:20:46;;;;;;;12.37;9.43;;;;;;;15.01;100.00;99860.75;1734475;80;21075;-72
2022/10/24 11:23:17;;;;;;;17.35;10.05;;;;;;;15.04;100.00;99854.66;1734542;80;21553;-74
2022/10/24 11:26:02;;;;;;;11.68;8.58;;;;;;;15.06;100.00;99850.23;1733096;80;21743;-74
2022/10/24 11:28:55;;;;;;;11.63;9.38;;;;;;;15.11;100.00;99852.36;1718219;82;21018;-74
2022/10/24 11:31:31;;;;;;;14.25;9.48;;;;;;;15.15;100.00;99858.88;1690236;84;21093;-74
2022/10/24 11:34:11;;;;;;;13.83;9.00;;;;;;;15.16;100.00;99853.63;1726338;80;21038;-71
2022/10/24 11:36:58;;;;;;;9.00;8.03;;;;;;;15.13;100.00;99853.41;1726686;80;21652;-72
2022/10/24 11:39:32;;;;;;;11.48;7.62;;;;;;;15.14;100.00;99853.12;1724168;80;21095;-71
2022/10/24 11:42:15;;;;;;;10.35;8.33;;;;;;;15.20;100.00;99848.36;1734823;80;21653;-71
2022/10/24 11:45:11;;;;;;;12.85;8.53;;;;;;;15.22;100.00;99842.04;1739851;80;21387;-70